createdAt,value
2019-06-20T00:00:57.871Z,6.47
2019-06-20T00:03:24.351Z,5.83
2019-06-20T00:05:50.871Z,5.87
2019-06-20T00:08:17.335Z,5.42
2019-06-20T00:10:44.887Z,5.25
2019-06-20T00:13:11.431Z,5.55
2019-06-20T00:15:38.145Z,4.92
2019-06-20T00:18:04.595Z,4.92
2019-06-20T00:20:31.032Z,5.62
2019-06-20T00:22:57.520Z,4.90
2019-06-20T00:25:23.948Z,4.95
2019-06-20T00:27:50.425Z,5.22
2019-06-20T00:30:17.740Z,5.62
2019-06-20T00:32:44.160Z,5.40
2019-06-20T00:35:10.600Z,5.05
2019-06-20T00:37:37.050Z,5.33
2019-06-20T00:40:05.604Z,5.47
2019-06-20T00:42:32.043Z,5.53
2019-06-20T00:44:58.502Z,6.30
2019-06-20T00:47:26.342Z,6.37
2019-06-20T00:49:52.779Z,6.47
2019-06-20T00:52:19.232Z,6.97
2019-06-20T00:54:45.777Z,6.95
2019-06-20T00:57:12.229Z,7.33
2019-06-20T00:59:38.796Z,8.43
2019-06-20T01:02:05.327Z,8.88
2019-06-20T01:04:31.764Z,10.68
2019-06-20T01:06:58.274Z,11.05
2019-06-20T01:09:24.771Z,12.50
2019-06-20T01:11:51.318Z,11.25
2019-06-20T01:14:17.783Z,11.83
2019-06-20T01:16:44.227Z,12.95
2019-06-20T01:19:10.668Z,13.78
2019-06-20T01:21:37.220Z,14.75
2019-06-20T01:24:03.780Z,14.18
2019-06-20T01:26:31.404Z,14.83
2019-06-20T01:28:57.824Z,16.80
2019-06-20T01:31:25.272Z,17.20
2019-06-20T01:33:51.692Z,21.93
2019-06-20T01:36:18.152Z,24.07
2019-06-20T01:38:44.605Z,26.85
2019-06-20T01:41:11.090Z,25.85
2019-06-20T01:43:49.971Z,27.70
2019-06-20T01:46:07.736Z,28.90
2019-06-20T01:48:34.165Z,30.23
2019-06-20T01:51:00.618Z,31.68
2019-06-20T01:53:27.040Z,31.45
2019-06-20T01:55:53.462Z,33.05
2019-06-20T01:58:19.910Z,32.40
2019-06-20T02:00:47.754Z,33.13
2019-06-20T02:03:14.789Z,33.08
2019-06-20T02:05:41.434Z,35.23
2019-06-20T02:08:07.899Z,33.53
2019-06-20T02:10:34.708Z,36.88
2019-06-20T02:13:02.180Z,35.52
2019-06-20T02:15:28.827Z,34.63
2019-06-20T02:17:55.467Z,37.23
2019-06-20T02:20:28.230Z,39.33
2019-06-20T02:22:54.688Z,40.30
2019-06-20T02:25:21.512Z,42.62
2019-06-20T02:27:47.959Z,42.73
2019-06-20T02:30:14.695Z,41.55
2019-06-20T02:32:41.145Z,40.83
2019-06-20T02:35:07.673Z,37.95
2019-06-20T02:37:34.099Z,39.03
2019-06-20T02:40:05.368Z,37.15
2019-06-20T02:42:31.804Z,34.92
2019-06-20T02:44:58.232Z,36.42
2019-06-20T02:47:24.688Z,36.53
2019-06-20T02:49:51.127Z,34.58
2019-06-20T02:52:17.775Z,34.00
2019-06-20T02:54:44.237Z,33.92
2019-06-20T02:57:10.710Z,35.95
2019-06-20T02:59:38.252Z,35.78
2019-06-20T03:02:04.787Z,38.60
2019-06-20T03:04:31.327Z,35.68
2019-06-20T03:06:59.743Z,36.33
2019-06-20T03:09:26.426Z,38.28
2019-06-20T03:11:52.875Z,40.23
2019-06-20T03:14:19.365Z,38.58
2019-06-20T03:16:45.844Z,40.35
2019-06-20T03:19:12.376Z,40.00
2019-06-20T03:21:38.910Z,40.63
2019-06-20T03:24:05.467Z,40.75
2019-06-20T03:26:31.987Z,41.30
2019-06-20T03:28:59.533Z,41.23
2019-06-20T03:31:26.009Z,42.20
2019-06-20T03:33:52.531Z,44.77
2019-06-20T03:36:18.972Z,44.15
2019-06-20T03:38:45.442Z,43.15
2019-06-20T03:41:11.958Z,45.95
2019-06-20T03:43:38.394Z,47.45
2019-06-20T03:46:04.861Z,45.00
2019-06-20T03:48:31.315Z,43.40
2019-06-20T03:50:57.754Z,47.43
2019-06-20T03:53:24.217Z,49.18
2019-06-20T03:55:50.630Z,45.00
2019-06-20T03:58:17.061Z,45.75
2019-06-20T04:00:43.497Z,44.93
2019-06-20T04:03:10.069Z,48.75
2019-06-20T04:05:36.625Z,46.77
2019-06-20T04:08:03.060Z,44.53
2019-06-20T04:10:29.647Z,45.17
2019-06-20T04:12:56.081Z,45.98
2019-06-20T04:15:22.644Z,45.20
2019-06-20T04:17:49.102Z,46.75
2019-06-20T04:20:15.790Z,45.65
2019-06-20T04:22:42.210Z,43.20
2019-06-20T04:25:08.734Z,43.80
2019-06-20T04:27:35.186Z,43.42
2019-06-20T04:30:02.929Z,45.43
2019-06-20T04:32:30.502Z,42.83
2019-06-20T04:34:57.016Z,43.42
2019-06-20T04:37:23.478Z,42.67
2019-06-20T04:39:49.964Z,42.00
2019-06-20T04:42:18.771Z,43.15
2019-06-20T04:44:45.495Z,41.95
2019-06-20T04:47:13.118Z,42.48
2019-06-20T04:49:39.655Z,40.12
2019-06-20T04:52:06.116Z,42.25
2019-06-20T04:54:32.555Z,38.95
2019-06-20T04:56:59.023Z,42.78
2019-06-20T04:59:25.491Z,41.65
2019-06-20T05:01:51.955Z,41.70
2019-06-20T05:04:18.392Z,40.92
2019-06-20T05:06:48.655Z,41.00
2019-06-20T05:09:15.104Z,39.38
2019-06-20T05:11:41.581Z,40.67
2019-06-20T05:14:08.026Z,41.08
2019-06-20T05:16:34.500Z,42.60
2019-06-20T05:19:00.924Z,40.78
2019-06-20T05:21:27.376Z,39.08
2019-06-20T05:23:53.816Z,40.55
2019-06-20T05:26:20.292Z,41.58
2019-06-20T05:28:46.782Z,42.90
2019-06-20T05:31:13.216Z,41.95
2019-06-20T05:33:39.668Z,41.92
2019-06-20T05:36:06.114Z,40.92
2019-06-20T05:38:32.766Z,36.17
2019-06-20T05:40:59.228Z,37.20
2019-06-20T05:43:25.655Z,39.08
2019-06-20T05:46:08.008Z,34.35
2019-06-20T05:48:20.483Z,38.53
2019-06-20T05:50:47.036Z,34.33
2019-06-20T05:53:13.519Z,32.95
2019-06-20T05:55:39.967Z,33.20
2019-06-20T05:58:06.460Z,32.05
2019-06-20T06:00:33.043Z,33.35
2019-06-20T06:02:59.518Z,33.10
2019-06-20T06:05:26.199Z,33.48
2019-06-20T06:07:52.687Z,34.03
2019-06-20T06:10:19.400Z,35.13
2019-06-20T06:12:45.856Z,34.27
2019-06-20T06:15:12.877Z,35.28
2019-06-20T06:17:39.311Z,33.78
2019-06-20T06:20:06.564Z,35.17
2019-06-20T06:22:33.019Z,35.10
2019-06-20T06:24:59.503Z,35.28
2019-06-20T06:27:25.936Z,36.53
2019-06-20T06:29:52.395Z,35.50
2019-06-20T06:32:20.187Z,36.45
2019-06-20T06:34:46.926Z,34.95
2019-06-20T06:37:13.424Z,34.15
2019-06-20T06:39:43.417Z,35.68
2019-06-20T06:42:08.388Z,34.67
2019-06-20T06:44:34.865Z,34.63
2019-06-20T06:47:01.287Z,34.45
2019-06-20T06:49:27.781Z,32.53
2019-06-20T06:51:54.261Z,31.17
2019-06-20T06:54:20.765Z,32.63
2019-06-20T06:56:47.276Z,30.17
2019-06-20T06:59:13.721Z,28.50
2019-06-20T07:01:40.260Z,26.10
2019-06-20T07:04:06.720Z,25.32
2019-06-20T07:06:33.267Z,27.90
2019-06-20T07:08:59.854Z,27.95
2019-06-20T07:11:26.375Z,26.45
2019-06-20T07:13:53.922Z,26.97
2019-06-20T07:16:20.391Z,27.52
2019-06-20T07:18:46.832Z,25.05
2019-06-20T07:21:13.487Z,27.30
2019-06-20T07:23:40.195Z,26.87
2019-06-20T07:26:08.860Z,26.70
2019-06-20T07:28:35.910Z,26.17
2019-06-20T07:31:02.629Z,26.27
2019-06-20T07:33:29.105Z,27.67
2019-06-20T07:35:55.550Z,29.70
2019-06-20T07:38:22.379Z,29.18
2019-06-20T07:40:48.933Z,29.60
2019-06-20T07:43:15.373Z,30.57
2019-06-20T07:45:42.004Z,29.45
2019-06-20T07:48:08.677Z,30.75
2019-06-20T07:50:35.157Z,29.30
2019-06-20T07:53:02.865Z,27.80
2019-06-20T07:55:29.689Z,26.90
2019-06-20T07:57:56.552Z,26.85
2019-06-20T08:00:23.630Z,28.12
2019-06-20T08:02:50.281Z,26.00
2019-06-20T08:05:18.886Z,23.38
2019-06-20T08:07:45.530Z,22.37
2019-06-20T08:10:13.589Z,21.82
2019-06-20T08:12:40.364Z,22.73
2019-06-20T08:15:15.184Z,22.85
2019-06-20T08:17:37.275Z,20.40
2019-06-20T08:20:05.349Z,19.05
2019-06-20T08:22:31.801Z,20.25
2019-06-20T08:24:59.052Z,20.12
2019-06-20T08:27:43.993Z,19.57
2019-06-20T08:30:11.021Z,18.92
2019-06-20T08:32:37.566Z,18.30
2019-06-20T08:35:04.926Z,18.85
2019-06-20T08:37:31.413Z,17.67
2019-06-20T08:39:58.492Z,16.57
2019-06-20T08:42:25.009Z,16.02
2019-06-20T08:44:51.546Z,14.25
2019-06-20T08:47:18.010Z,15.08
2019-06-20T08:49:44.501Z,14.40
2019-06-20T08:52:11.150Z,15.58
2019-06-20T08:54:37.646Z,14.43
2019-06-20T08:57:05.712Z,15.05
2019-06-20T08:59:32.238Z,15.35
2019-06-20T09:02:00.270Z,15.48
2019-06-20T09:04:27.149Z,16.30
2019-06-20T09:06:55.264Z,15.55
2019-06-20T09:09:21.965Z,15.18
2019-06-20T09:11:48.602Z,15.28
2019-06-20T09:14:15.139Z,14.80
2019-06-20T09:16:41.566Z,14.75
2019-06-20T09:19:08.022Z,15.93
2019-06-20T09:21:34.475Z,15.40
2019-06-20T09:24:00.956Z,15.95
2019-06-20T09:26:27.390Z,16.52
2019-06-20T09:28:54.405Z,17.48
2019-06-20T09:34:13.963Z,17.98
2019-06-20T09:36:40.423Z,17.30
2019-06-20T09:39:07.992Z,17.52
2019-06-20T09:41:34.510Z,18.80
2019-06-20T09:44:01.062Z,18.32
2019-06-20T09:46:27.536Z,17.95
2019-06-20T09:48:54.054Z,19.02
2019-06-20T09:51:20.589Z,17.12
2019-06-20T09:53:48.430Z,17.55
2019-06-20T09:56:14.954Z,17.92
2019-06-20T09:58:41.737Z,19.45
2019-06-20T10:01:08.403Z,19.25
2019-06-20T10:03:34.848Z,19.27
2019-06-20T10:06:01.405Z,19.07
2019-06-20T10:08:27.957Z,19.30
2019-06-20T10:10:56.249Z,18.27
2019-06-20T10:13:23.323Z,19.30
2019-06-20T10:15:51.466Z,16.67
2019-06-20T10:18:18.113Z,17.65
2019-06-20T10:20:46.098Z,16.48
2019-06-20T10:23:13.505Z,17.73
2019-06-20T10:25:40.109Z,19.42
2019-06-20T10:28:06.995Z,18.95
2019-06-20T10:30:33.482Z,18.98
2019-06-20T10:32:59.922Z,23.42
2019-06-20T10:35:26.478Z,19.77
2019-06-20T10:37:53.202Z,18.23
2019-06-20T10:40:20.366Z,19.42
2019-06-20T10:42:48.203Z,20.08
2019-06-20T10:45:16.623Z,19.85
2019-06-20T10:47:44.057Z,20.12
2019-06-20T10:50:11.840Z,19.55
2019-06-20T10:52:38.299Z,19.32
2019-06-20T10:55:05.522Z,20.25
2019-06-20T10:57:31.986Z,20.88
2019-06-20T10:59:58.461Z,21.07
2019-06-20T11:02:26.773Z,19.57
2019-06-20T11:04:54.619Z,20.10
2019-06-20T11:07:21.272Z,18.87
2019-06-20T11:09:47.841Z,19.32
2019-06-20T11:12:14.689Z,19.73
2019-06-20T11:14:42.139Z,21.30
2019-06-20T11:17:08.735Z,20.43
2019-06-20T11:19:35.211Z,21.42
2019-06-20T11:22:01.665Z,19.32
2019-06-20T11:24:28.293Z,17.77
2019-06-20T11:26:54.717Z,17.80
2019-06-20T11:29:21.207Z,17.35
2019-06-20T11:31:49.600Z,16.70
2019-06-20T11:34:16.292Z,16.42
2019-06-20T11:36:42.764Z,15.85
2019-06-20T11:39:09.220Z,14.30
2019-06-20T11:41:36.768Z,14.43
2019-06-20T11:44:04.496Z,14.33
2019-06-20T11:46:31.296Z,12.43
2019-06-20T11:48:57.952Z,11.48
2019-06-20T11:51:24.405Z,12.70
2019-06-20T11:53:50.828Z,13.60
2019-06-20T11:56:17.832Z,13.30
2019-06-20T11:58:44.803Z,13.93
2019-06-20T12:01:11.420Z,11.83
2019-06-20T12:03:39.190Z,11.28
2019-06-20T12:06:06.481Z,10.93
2019-06-20T12:08:34.520Z,10.95
2019-06-20T12:11:01.138Z,11.53
2019-06-20T12:13:27.577Z,10.35
2019-06-20T12:15:54.029Z,11.68
2019-06-20T12:18:20.451Z,9.20
2019-06-20T12:20:46.912Z,10.08
2019-06-20T12:23:13.356Z,9.50
2019-06-20T12:25:40.979Z,10.45
2019-06-20T12:28:08.156Z,10.80
2019-06-20T12:30:34.727Z,11.28
2019-06-20T12:33:01.554Z,11.38
2019-06-20T12:35:28.259Z,10.95
2019-06-20T12:37:54.769Z,11.08
2019-06-20T12:40:23.088Z,12.82
2019-06-20T12:42:49.549Z,10.65
2019-06-20T12:45:16.292Z,11.38
2019-06-20T12:47:43.774Z,11.57
2019-06-20T12:50:11.042Z,10.10
2019-06-20T12:52:37.650Z,10.72
2019-06-20T12:55:06.190Z,9.95
2019-06-20T12:57:32.728Z,9.53
2019-06-20T12:59:59.268Z,11.57
2019-06-20T13:02:26.799Z,14.53
2019-06-20T13:04:53.336Z,13.10
2019-06-20T13:07:19.948Z,12.55
2019-06-20T13:09:46.491Z,12.05
2019-06-20T13:12:14.539Z,12.60
2019-06-20T13:14:41.011Z,14.03
2019-06-20T13:17:07.538Z,13.15
2019-06-20T13:19:34.078Z,14.03
2019-06-20T13:22:00.550Z,15.10
2019-06-20T13:24:27.025Z,14.00
2019-06-20T13:26:54.657Z,15.32
2019-06-20T13:29:22.210Z,15.98
2019-06-20T13:32:01.902Z,16.30
2019-06-20T13:34:17.053Z,16.07
2019-06-20T13:36:43.577Z,15.95
2019-06-20T13:39:11.448Z,17.27
2019-06-20T13:41:39.385Z,18.37
2019-06-20T13:44:06.371Z,16.95
2019-06-20T13:46:32.856Z,16.10
2019-06-20T13:48:59.282Z,16.50
2019-06-20T13:51:25.838Z,16.42
2019-06-20T13:53:52.299Z,14.85
2019-06-20T13:56:18.919Z,15.05
2019-06-20T13:58:45.375Z,14.50
2019-06-20T14:01:11.827Z,15.38
2019-06-20T14:03:38.274Z,14.63
2019-06-20T14:06:04.827Z,13.90
2019-06-20T14:08:31.450Z,13.78
2019-06-20T14:10:57.895Z,14.23
2019-06-20T14:13:24.350Z,14.03
2019-06-20T14:15:51.265Z,12.68
2019-06-20T14:18:18.051Z,12.93
2019-06-20T14:20:44.892Z,12.23
2019-06-20T14:23:11.561Z,12.68
2019-06-20T14:25:38.007Z,13.15
2019-06-20T14:28:04.542Z,13.78
2019-06-20T14:30:32.487Z,14.50
2019-06-20T14:32:58.932Z,13.48
2019-06-20T14:35:25.386Z,12.95
2019-06-20T14:37:52.214Z,13.20
2019-06-20T14:40:20.063Z,13.45
2019-06-20T14:42:47.883Z,12.88
2019-06-20T14:45:15.726Z,13.38
2019-06-20T14:47:42.325Z,12.43
2019-06-20T14:50:09.900Z,11.30
2019-06-20T14:52:36.782Z,11.43
2019-06-20T14:55:04.756Z,12.20
2019-06-20T14:57:31.649Z,11.65
2019-06-20T14:59:58.238Z,12.82
2019-06-20T15:02:37.453Z,13.70
2019-06-20T15:04:54.374Z,13.55
2019-06-20T15:07:20.947Z,14.07
2019-06-20T15:09:48.090Z,13.10
2019-06-20T15:12:15.868Z,12.90
2019-06-20T15:14:42.360Z,12.93
2019-06-20T15:17:08.796Z,11.50
2019-06-20T15:19:35.213Z,13.62
2019-06-20T15:22:01.688Z,12.98
2019-06-20T15:24:28.123Z,12.90
2019-06-20T15:26:54.568Z,13.98
2019-06-20T15:29:21.041Z,13.85
2019-06-20T15:31:48.984Z,13.98
2019-06-20T15:34:15.853Z,13.43
2019-06-20T15:36:42.286Z,14.28
2019-06-20T15:39:08.763Z,13.78
2019-06-20T15:41:35.413Z,12.28
2019-06-20T15:44:01.858Z,11.93
2019-06-20T15:46:30.501Z,11.08
2019-06-20T15:48:59.797Z,12.60
2019-06-20T15:51:25.087Z,11.15
2019-06-20T15:53:51.535Z,12.30
2019-06-20T15:56:19.008Z,14.60
2019-06-20T15:58:45.454Z,16.50
2019-06-20T16:01:11.899Z,19.98
2019-06-20T16:03:39.571Z,21.35
2019-06-20T16:06:06.168Z,21.00
2019-06-20T16:08:32.683Z,22.55
2019-06-20T16:10:59.128Z,22.30
2019-06-20T16:13:25.582Z,23.62
2019-06-20T16:15:52.173Z,24.80
2019-06-20T16:18:18.647Z,25.37
2019-06-20T16:20:45.108Z,30.32
2019-06-20T16:23:11.579Z,26.85
2019-06-20T16:25:38.037Z,23.98
2019-06-20T16:28:04.475Z,24.27
2019-06-20T16:30:33.561Z,24.15
2019-06-20T16:32:59.388Z,24.82
2019-06-20T16:35:25.852Z,21.45
2019-06-20T16:37:53.075Z,22.98
2019-06-20T16:40:26.420Z,24.92
2019-06-20T16:42:52.988Z,24.75
2019-06-20T16:45:19.777Z,25.35
2019-06-20T16:47:46.253Z,20.20
2019-06-20T16:50:12.954Z,20.35
2019-06-20T16:52:39.456Z,20.27
2019-06-20T16:55:07.493Z,20.05
2019-06-20T16:57:34.932Z,19.57
2019-06-20T17:00:03.889Z,23.65
2019-06-20T17:02:30.430Z,20.55
2019-06-20T17:04:56.875Z,20.92
2019-06-20T17:07:23.318Z,23.22
2019-06-20T17:09:49.760Z,22.95
2019-06-20T17:12:16.242Z,21.57
2019-06-20T17:14:42.766Z,25.12
2019-06-20T17:17:09.307Z,22.75
2019-06-20T17:19:35.787Z,22.35
2019-06-20T17:22:02.378Z,25.27
2019-06-20T17:24:28.826Z,24.92
2019-06-20T17:26:55.256Z,24.75
2019-06-20T17:29:21.705Z,22.98
2019-06-20T17:31:48.236Z,21.87
2019-06-20T17:34:14.679Z,24.57
2019-06-20T17:36:41.215Z,23.62
2019-06-20T17:39:07.819Z,22.85
2019-06-20T17:41:35.835Z,24.18
2019-06-20T17:44:02.290Z,25.72
2019-06-20T17:46:28.714Z,22.17
2019-06-20T17:48:55.182Z,22.25
2019-06-20T17:51:21.595Z,22.85
2019-06-20T17:53:49.704Z,23.45
2019-06-20T17:56:18.018Z,25.02
2019-06-20T17:58:44.767Z,25.10
2019-06-20T18:01:11.183Z,22.82
2019-06-20T18:03:37.611Z,24.77
2019-06-20T18:06:04.171Z,24.18
2019-06-20T18:08:30.612Z,23.27
2019-06-20T18:10:57.040Z,23.47
2019-06-20T18:13:23.487Z,23.57
2019-06-20T18:15:49.909Z,24.55
2019-06-20T18:18:17.199Z,25.17
2019-06-20T18:20:44.713Z,23.00
2019-06-20T18:23:11.171Z,24.32
2019-06-20T18:25:37.835Z,24.77
2019-06-20T18:28:04.389Z,25.25
2019-06-20T18:30:43.033Z,24.85
2019-06-20T18:33:09.686Z,22.35
2019-06-20T18:35:36.317Z,20.95
2019-06-20T18:38:02.882Z,20.65
2019-06-20T18:40:29.305Z,22.25
2019-06-20T18:42:55.757Z,24.32
2019-06-20T18:45:22.187Z,24.70
2019-06-20T18:47:48.619Z,24.80
2019-06-20T18:50:15.141Z,25.50
2019-06-20T18:52:51.790Z,26.45
2019-06-20T18:55:10.538Z,26.80
2019-06-20T18:57:36.971Z,26.55
2019-06-20T19:00:07.153Z,27.30
2019-06-20T19:02:33.635Z,27.98
2019-06-20T19:05:00.093Z,26.30
2019-06-20T19:07:27.529Z,26.50
2019-06-20T19:09:54.064Z,27.58
2019-06-20T19:12:20.517Z,27.22
2019-06-20T19:14:47.073Z,26.20
2019-06-20T19:17:14.830Z,28.73
2019-06-20T19:19:41.487Z,27.42
2019-06-20T19:22:07.942Z,29.42
2019-06-20T19:24:34.393Z,28.80
2019-06-20T19:27:00.864Z,28.92
2019-06-20T19:29:27.421Z,29.42
2019-06-20T19:31:53.860Z,31.45
2019-06-20T19:34:20.314Z,30.08
2019-06-20T19:36:46.754Z,31.15
2019-06-20T19:39:13.189Z,31.40
2019-06-20T19:41:39.655Z,30.08
2019-06-20T19:44:06.088Z,33.40
2019-06-20T19:46:32.621Z,31.68
2019-06-20T19:48:59.157Z,30.70
2019-06-20T19:51:25.621Z,33.98
2019-06-20T19:53:52.178Z,31.75
2019-06-20T19:56:18.729Z,31.68
2019-06-20T19:58:46.356Z,31.87
2019-06-20T20:01:12.986Z,34.38
2019-06-20T20:03:39.435Z,36.85
2019-06-20T20:06:05.991Z,35.35
2019-06-20T20:08:32.613Z,33.02
2019-06-20T20:10:59.067Z,35.92
2019-06-20T20:13:25.530Z,34.98
2019-06-20T20:15:52.090Z,33.48
2019-06-20T20:18:18.615Z,33.48
2019-06-20T20:20:47.550Z,35.08
2019-06-20T20:23:14.560Z,31.80
2019-06-20T20:25:41.071Z,34.15
2019-06-20T20:28:07.619Z,32.90
2019-06-20T20:30:34.213Z,33.40
2019-06-20T20:33:02.072Z,32.70
2019-06-20T20:35:35.367Z,31.95
2019-06-20T20:38:00.545Z,33.10
2019-06-20T20:40:27.887Z,32.30
2019-06-20T20:42:54.420Z,32.20
2019-06-20T20:45:20.967Z,31.55
2019-06-20T20:47:47.427Z,29.98
2019-06-20T20:50:14.256Z,29.10
2019-06-20T20:52:42.290Z,33.80
2019-06-20T20:55:11.200Z,29.45
2019-06-20T20:57:37.793Z,30.77
2019-06-20T21:00:07.048Z,27.80
2019-06-20T21:02:33.734Z,29.42
2019-06-20T21:05:00.171Z,28.55
2019-06-20T21:07:26.618Z,27.73
2019-06-20T21:09:55.174Z,28.07
2019-06-20T21:12:21.597Z,25.68
2019-06-20T21:14:48.038Z,28.40
2019-06-20T21:17:14.478Z,28.20
2019-06-20T21:19:40.946Z,28.00
2019-06-20T21:22:07.470Z,26.87
2019-06-20T21:24:33.911Z,26.70
2019-06-20T21:27:00.377Z,26.27
2019-06-20T21:29:27.070Z,28.70
2019-06-20T21:31:53.518Z,25.80
2019-06-20T21:34:20.349Z,24.63
2019-06-20T21:36:46.779Z,26.02
2019-06-20T21:39:14.379Z,27.13
2019-06-20T21:41:40.898Z,25.50
2019-06-20T21:44:07.338Z,27.15
2019-06-20T21:46:33.805Z,27.85
2019-06-20T21:49:00.248Z,27.25
2019-06-20T21:51:26.803Z,25.48
2019-06-20T21:53:53.243Z,24.92
2019-06-20T21:56:19.760Z,24.90
2019-06-20T21:58:46.202Z,27.20
2019-06-20T22:01:13.148Z,25.20
2019-06-20T22:03:39.795Z,27.02
2019-06-20T22:06:06.235Z,25.02
2019-06-20T22:08:32.667Z,23.90
2019-06-20T22:10:59.336Z,26.07
2019-06-20T22:13:25.827Z,26.05
2019-06-20T22:15:52.363Z,26.93
2019-06-20T22:18:18.827Z,25.40
2019-06-20T22:20:45.269Z,27.58
2019-06-20T22:23:11.704Z,26.77
2019-06-20T22:25:38.148Z,29.02
2019-06-20T22:28:04.847Z,27.20
2019-06-20T22:30:46.995Z,25.55
2019-06-20T22:33:13.524Z,25.12
2019-06-20T22:35:41.480Z,24.67
2019-06-20T22:38:07.952Z,25.48
2019-06-20T22:40:34.525Z,22.32
2019-06-20T22:43:01.075Z,21.10
2019-06-20T22:45:27.525Z,21.87
2019-06-20T22:47:53.976Z,22.90
2019-06-20T22:50:20.428Z,24.40
2019-06-20T22:52:46.860Z,23.00
2019-06-20T22:55:13.439Z,22.85
2019-06-20T22:57:39.926Z,24.05
2019-06-20T23:00:07.358Z,23.62
2019-06-20T23:02:33.898Z,22.40
2019-06-20T23:05:00.441Z,22.32
2019-06-20T23:07:26.917Z,19.23
2019-06-20T23:10:08.934Z,20.08
2019-06-20T23:12:22.106Z,20.02
2019-06-20T23:14:48.579Z,19.98
2019-06-20T23:17:15.013Z,19.85
2019-06-20T23:19:41.481Z,19.48
2019-06-20T23:22:08.026Z,18.90
2019-06-20T23:24:35.000Z,18.52
2019-06-20T23:27:01.430Z,18.25
2019-06-20T23:29:27.895Z,18.00
2019-06-20T23:31:55.214Z,17.60
2019-06-20T23:34:21.712Z,18.15
2019-06-20T23:36:48.320Z,19.67
2019-06-20T23:39:14.788Z,18.98
2019-06-20T23:41:41.211Z,18.67
2019-06-20T23:44:07.665Z,17.70
2019-06-20T23:46:34.111Z,17.50
2019-06-20T23:49:00.584Z,17.75
2019-06-20T23:51:28.927Z,17.70
2019-06-20T23:53:55.407Z,16.62
2019-06-20T23:56:21.852Z,16.70
2019-06-20T23:58:48.298Z,17.02
